sensor_id;sensor_type;location;lat;lon;timestamp;temperature;humidity
12111;DHT22;6119;52.372;8.990;2024-01-30T00:01:30;6.60;99.90
12111;DHT22;6119;52.372;8.990;2024-01-30T00:04:17;6.70;99.90
12111;DHT22;6119;52.372;8.990;2024-01-30T00:07:03;6.60;99.90
12111;DHT22;6119;52.372;8.990;2024-01-30T00:09:50;6.50;99.90
12111;DHT22;6119;52.372;8.990;2024-01-30T00:12:38;6.50;99.90
12111;DHT22;6119;52.372;8.990;2024-01-30T00:15:24;6.60;99.90
12111;DHT22;6119;52.372;8.990;2024-01-30T00:18:11;6.60;99.90
12111;DHT22;6119;52.372;8.990;2024-01-30T00:20:57;6.60;99.90
12111;DHT22;6119;52.372;8.990;2024-01-30T00:23:44;6.60;99.90
12111;DHT22;6119;52.372;8.990;2024-01-30T00:26:30;6.60;99.90
12111;DHT22;6119;52.372;8.990;2024-01-30T00:29:18;6.60;99.90
12111;DHT22;6119;52.372;8.990;2024-01-30T00:32:07;6.60;99.90
12111;DHT22;6119;52.372;8.990;2024-01-30T00:34:53;6.50;99.90
12111;DHT22;6119;52.372;8.990;2024-01-30T00:37:40;6.50;99.90
12111;DHT22;6119;52.372;8.990;2024-01-30T00:40:27;6.50;99.90
12111;DHT22;6119;52.372;8.990;2024-01-30T00:43:14;6.50;99.90
12111;DHT22;6119;52.372;8.990;2024-01-30T00:46:02;6.50;99.90
12111;DHT22;6119;52.372;8.990;2024-01-30T00:48:49;6.40;99.90
12111;DHT22;6119;52.372;8.990;2024-01-30T00:51:36;6.50;99.90
12111;DHT22;6119;52.372;8.990;2024-01-30T00:54:23;6.50;99.90
12111;DHT22;6119;52.372;8.990;2024-01-30T00:57:09;6.60;99.90
12111;DHT22;6119;52.372;8.990;2024-01-30T00:59:56;6.60;99.90
12111;DHT22;6119;52.372;8.990;2024-01-30T01:02:44;6.60;99.90
12111;DHT22;6119;52.372;8.990;2024-01-30T01:05:31;6.60;99.90
12111;DHT22;6119;52.372;8.990;2024-01-30T01:08:18;6.50;99.90
12111;DHT22;6119;52.372;8.990;2024-01-30T01:11:05;6.50;99.90
12111;DHT22;6119;52.372;8.990;2024-01-30T01:13:52;6.50;99.90
12111;DHT22;6119;52.372;8.990;2024-01-30T01:16:38;6.50;99.90
12111;DHT22;6119;52.372;8.990;2024-01-30T01:19:26;6.50;99.90
12111;DHT22;6119;52.372;8.990;2024-01-30T01:22:13;6.50;99.90
12111;DHT22;6119;52.372;8.990;2024-01-30T01:25:00;6.50;99.90
12111;DHT22;6119;52.372;8.990;2024-01-30T01:27:47;6.50;99.90
12111;DHT22;6119;52.372;8.990;2024-01-30T01:30:37;6.50;99.90
12111;DHT22;6119;52.372;8.990;2024-01-30T01:33:24;6.40;99.90
12111;DHT22;6119;52.372;8.990;2024-01-30T01:36:13;6.40;99.90
12111;DHT22;6119;52.372;8.990;2024-01-30T01:39:00;6.30;99.90
12111;DHT22;6119;52.372;8.990;2024-01-30T01:41:46;6.40;99.90
12111;DHT22;6119;52.372;8.990;2024-01-30T01:44:33;6.40;99.90
12111;DHT22;6119;52.372;8.990;2024-01-30T01:47:20;6.40;99.90
12111;DHT22;6119;52.372;8.990;2024-01-30T01:50:07;6.30;99.90
12111;DHT22;6119;52.372;8.990;2024-01-30T01:52:55;6.30;99.90
12111;DHT22;6119;52.372;8.990;2024-01-30T01:55:42;6.30;99.90
12111;DHT22;6119;52.372;8.990;2024-01-30T01:58:29;6.30;99.90
12111;DHT22;6119;52.372;8.990;2024-01-30T02:01:19;6.30;99.90
12111;DHT22;6119;52.372;8.990;2024-01-30T02:04:07;6.30;99.90
12111;DHT22;6119;52.372;8.990;2024-01-30T02:06:54;6.40;99.90
12111;DHT22;6119;52.372;8.990;2024-01-30T02:09:42;6.50;99.90
12111;DHT22;6119;52.372;8.990;2024-01-30T02:12:29;6.40;99.90
12111;DHT22;6119;52.372;8.990;2024-01-30T02:15:16;6.30;99.90
12111;DHT22;6119;52.372;8.990;2024-01-30T02:18:04;6.20;99.90
12111;DHT22;6119;52.372;8.990;2024-01-30T02:20:53;6.20;99.90
12111;DHT22;6119;52.372;8.990;2024-01-30T02:23:43;6.30;99.90
12111;DHT22;6119;52.372;8.990;2024-01-30T02:26:31;6.30;99.90
12111;DHT22;6119;52.372;8.990;2024-01-30T02:29:17;6.30;99.90
12111;DHT22;6119;52.372;8.990;2024-01-30T02:32:05;6.30;99.90
12111;DHT22;6119;52.372;8.990;2024-01-30T02:34:53;6.30;99.90
12111;DHT22;6119;52.372;8.990;2024-01-30T02:37:39;6.30;99.90
12111;DHT22;6119;52.372;8.990;2024-01-30T02:40:27;6.30;99.90
12111;DHT22;6119;52.372;8.990;2024-01-30T02:43:15;6.20;99.90
12111;DHT22;6119;52.372;8.990;2024-01-30T02:46:02;6.20;99.90
12111;DHT22;6119;52.372;8.990;2024-01-30T02:48:49;6.20;99.90
12111;DHT22;6119;52.372;8.990;2024-01-30T02:51:36;6.30;99.90
12111;DHT22;6119;52.372;8.990;2024-01-30T02:54:22;6.30;99.90
12111;DHT22;6119;52.372;8.990;2024-01-30T02:57:10;6.40;99.90
12111;DHT22;6119;52.372;8.990;2024-01-30T02:59:57;6.30;99.90
12111;DHT22;6119;52.372;8.990;2024-01-30T03:02:44;6.30;99.90
12111;DHT22;6119;52.372;8.990;2024-01-30T03:05:30;6.40;99.90
12111;DHT22;6119;52.372;8.990;2024-01-30T03:08:17;6.40;99.90
12111;DHT22;6119;52.372;8.990;2024-01-30T03:11:06;6.40;99.90
12111;DHT22;6119;52.372;8.990;2024-01-30T03:13:54;6.30;99.90
12111;DHT22;6119;52.372;8.990;2024-01-30T03:16:41;6.30;99.90
12111;DHT22;6119;52.372;8.990;2024-01-30T03:19:28;6.40;99.90
12111;DHT22;6119;52.372;8.990;2024-01-30T03:22:15;6.30;99.90
12111;DHT22;6119;52.372;8.990;2024-01-30T03:25:01;6.30;99.90
12111;DHT22;6119;52.372;8.990;2024-01-30T03:27:49;6.30;99.90
12111;DHT22;6119;52.372;8.990;2024-01-30T03:30:36;6.40;99.90
12111;DHT22;6119;52.372;8.990;2024-01-30T03:33:23;6.40;99.90
12111;DHT22;6119;52.372;8.990;2024-01-30T03:36:10;6.30;99.90
12111;DHT22;6119;52.372;8.990;2024-01-30T03:38:57;6.40;99.90
12111;DHT22;6119;52.372;8.990;2024-01-30T03:41:43;6.40;99.90
12111;DHT22;6119;52.372;8.990;2024-01-30T03:44:30;6.40;99.90
12111;DHT22;6119;52.372;8.990;2024-01-30T03:47:18;6.50;99.90
12111;DHT22;6119;52.372;8.990;2024-01-30T03:50:06;6.40;99.90
12111;DHT22;6119;52.372;8.990;2024-01-30T03:52:52;6.40;99.90
12111;DHT22;6119;52.372;8.990;2024-01-30T03:55:39;6.40;99.90
12111;DHT22;6119;52.372;8.990;2024-01-30T03:58:26;6.40;99.90
12111;DHT22;6119;52.372;8.990;2024-01-30T04:01:13;6.30;99.90
12111;DHT22;6119;52.372;8.990;2024-01-30T04:04:02;6.30;99.90
12111;DHT22;6119;52.372;8.990;2024-01-30T04:06:49;6.30;99.90
12111;DHT22;6119;52.372;8.990;2024-01-30T04:09:36;6.20;99.90
12111;DHT22;6119;52.372;8.990;2024-01-30T04:12:22;6.20;99.90
12111;DHT22;6119;52.372;8.990;2024-01-30T04:15:09;6.10;99.90
12111;DHT22;6119;52.372;8.990;2024-01-30T04:17:57;6.10;99.90
12111;DHT22;6119;52.372;8.990;2024-01-30T04:20:45;6.10;99.90
12111;DHT22;6119;52.372;8.990;2024-01-30T04:23:32;6.00;99.90
12111;DHT22;6119;52.372;8.990;2024-01-30T04:26:19;6.00;99.90
12111;DHT22;6119;52.372;8.990;2024-01-30T04:29:05;6.00;99.90
12111;DHT22;6119;52.372;8.990;2024-01-30T04:31:52;6.00;99.90
12111;DHT22;6119;52.372;8.990;2024-01-30T04:34:38;6.00;99.90
12111;DHT22;6119;52.372;8.990;2024-01-30T04:37:27;6.00;99.90
12111;DHT22;6119;52.372;8.990;2024-01-30T04:40:13;6.10;99.90
12111;DHT22;6119;52.372;8.990;2024-01-30T04:43:00;6.10;99.90
12111;DHT22;6119;52.372;8.990;2024-01-30T04:45:48;6.20;99.90
12111;DHT22;6119;52.372;8.990;2024-01-30T04:48:35;6.20;99.90
12111;DHT22;6119;52.372;8.990;2024-01-30T04:51:21;6.30;99.90
12111;DHT22;6119;52.372;8.990;2024-01-30T04:54:09;6.30;99.90
12111;DHT22;6119;52.372;8.990;2024-01-30T04:56:56;6.30;99.90
12111;DHT22;6119;52.372;8.990;2024-01-30T04:59:43;6.20;99.90
12111;DHT22;6119;52.372;8.990;2024-01-30T05:02:29;6.10;99.90
12111;DHT22;6119;52.372;8.990;2024-01-30T05:05:15;6.10;99.90
12111;DHT22;6119;52.372;8.990;2024-01-30T05:08:03;6.10;99.90
12111;DHT22;6119;52.372;8.990;2024-01-30T05:10:50;6.10;99.90
12111;DHT22;6119;52.372;8.990;2024-01-30T05:13:37;6.10;99.90
12111;DHT22;6119;52.372;8.990;2024-01-30T05:16:24;6.10;99.90
12111;DHT22;6119;52.372;8.990;2024-01-30T05:19:10;6.00;99.90
12111;DHT22;6119;52.372;8.990;2024-01-30T05:21:56;6.00;99.90
12111;DHT22;6119;52.372;8.990;2024-01-30T05:24:43;6.00;99.90
12111;DHT22;6119;52.372;8.990;2024-01-30T05:27:31;6.00;99.90
12111;DHT22;6119;52.372;8.990;2024-01-30T05:30:18;6.00;99.90
12111;DHT22;6119;52.372;8.990;2024-01-30T05:33:05;6.00;99.90
12111;DHT22;6119;52.372;8.990;2024-01-30T05:35:52;6.00;99.90
12111;DHT22;6119;52.372;8.990;2024-01-30T05:38:40;5.90;99.90
12111;DHT22;6119;52.372;8.990;2024-01-30T05:41:26;6.00;99.90
12111;DHT22;6119;52.372;8.990;2024-01-30T05:44:14;6.00;99.90
12111;DHT22;6119;52.372;8.990;2024-01-30T05:47:01;6.00;99.90
12111;DHT22;6119;52.372;8.990;2024-01-30T05:49:47;6.00;99.90
12111;DHT22;6119;52.372;8.990;2024-01-30T05:52:34;6.00;99.90
12111;DHT22;6119;52.372;8.990;2024-01-30T05:55:21;5.90;99.90
12111;DHT22;6119;52.372;8.990;2024-01-30T05:58:08;5.90;99.90
12111;DHT22;6119;52.372;8.990;2024-01-30T06:00:57;5.90;99.90
12111;DHT22;6119;52.372;8.990;2024-01-30T06:03:44;5.90;99.90
12111;DHT22;6119;52.372;8.990;2024-01-30T06:06:30;5.90;99.90
12111;DHT22;6119;52.372;8.990;2024-01-30T06:09:17;6.00;99.90
12111;DHT22;6119;52.372;8.990;2024-01-30T06:12:04;6.00;99.90
12111;DHT22;6119;52.372;8.990;2024-01-30T06:14:51;5.90;99.90
12111;DHT22;6119;52.372;8.990;2024-01-30T06:17:41;5.90;99.90
12111;DHT22;6119;52.372;8.990;2024-01-30T06:20:27;5.90;99.90
12111;DHT22;6119;52.372;8.990;2024-01-30T06:23:14;5.90;99.90
12111;DHT22;6119;52.372;8.990;2024-01-30T06:26:01;6.00;99.90
12111;DHT22;6119;52.372;8.990;2024-01-30T06:28:47;6.10;99.90
12111;DHT22;6119;52.372;8.990;2024-01-30T06:31:40;6.10;99.90
12111;DHT22;6119;52.372;8.990;2024-01-30T06:34:29;6.20;99.90
12111;DHT22;6119;52.372;8.990;2024-01-30T06:37:16;6.20;99.90
12111;DHT22;6119;52.372;8.990;2024-01-30T06:40:03;6.20;99.90
12111;DHT22;6119;52.372;8.990;2024-01-30T06:42:50;6.10;99.90
12111;DHT22;6119;52.372;8.990;2024-01-30T06:45:37;6.20;99.90
12111;DHT22;6119;52.372;8.990;2024-01-30T06:48:23;6.20;99.90
12111;DHT22;6119;52.372;8.990;2024-01-30T06:51:11;6.20;99.90
12111;DHT22;6119;52.372;8.990;2024-01-30T06:54:03;6.20;99.90
12111;DHT22;6119;52.372;8.990;2024-01-30T06:56:49;6.20;99.90
12111;DHT22;6119;52.372;8.990;2024-01-30T06:59:36;6.10;99.90
12111;DHT22;6119;52.372;8.990;2024-01-30T07:02:26;6.10;99.90
12111;DHT22;6119;52.372;8.990;2024-01-30T07:05:13;6.10;99.90
12111;DHT22;6119;52.372;8.990;2024-01-30T07:08:02;6.10;99.90
12111;DHT22;6119;52.372;8.990;2024-01-30T07:10:49;6.10;99.90
12111;DHT22;6119;52.372;8.990;2024-01-30T07:13:35;6.10;99.90
12111;DHT22;6119;52.372;8.990;2024-01-30T07:16:22;6.10;99.90
12111;DHT22;6119;52.372;8.990;2024-01-30T07:19:09;6.10;99.90
12111;DHT22;6119;52.372;8.990;2024-01-30T07:21:56;6.10;99.90
12111;DHT22;6119;52.372;8.990;2024-01-30T07:24:44;6.20;99.90
12111;DHT22;6119;52.372;8.990;2024-01-30T07:27:33;6.20;99.90
12111;DHT22;6119;52.372;8.990;2024-01-30T07:30:20;6.20;99.90
12111;DHT22;6119;52.372;8.990;2024-01-30T07:33:07;6.20;99.90
12111;DHT22;6119;52.372;8.990;2024-01-30T07:35:54;6.20;99.90
12111;DHT22;6119;52.372;8.990;2024-01-30T07:38:40;6.20;99.90
12111;DHT22;6119;52.372;8.990;2024-01-30T07:41:28;6.20;99.90
12111;DHT22;6119;52.372;8.990;2024-01-30T07:44:15;6.20;99.90
12111;DHT22;6119;52.372;8.990;2024-01-30T07:47:02;6.20;99.90
12111;DHT22;6119;52.372;8.990;2024-01-30T07:49:49;6.20;99.90
12111;DHT22;6119;52.372;8.990;2024-01-30T07:52:36;6.20;99.90
12111;DHT22;6119;52.372;8.990;2024-01-30T07:55:24;6.20;99.90
12111;DHT22;6119;52.372;8.990;2024-01-30T07:58:16;6.20;99.90
12111;DHT22;6119;52.372;8.990;2024-01-30T08:01:02;6.20;99.90
12111;DHT22;6119;52.372;8.990;2024-01-30T08:03:50;6.10;99.90
12111;DHT22;6119;52.372;8.990;2024-01-30T08:06:36;6.20;99.90
12111;DHT22;6119;52.372;8.990;2024-01-30T08:09:27;6.20;99.90
12111;DHT22;6119;52.372;8.990;2024-01-30T08:12:13;6.10;99.90
12111;DHT22;6119;52.372;8.990;2024-01-30T08:15:01;6.20;99.90
12111;DHT22;6119;52.372;8.990;2024-01-30T08:17:48;6.20;99.90
12111;DHT22;6119;52.372;8.990;2024-01-30T08:20:35;6.30;99.90
12111;DHT22;6119;52.372;8.990;2024-01-30T08:23:21;6.30;99.90
12111;DHT22;6119;52.372;8.990;2024-01-30T08:26:08;6.30;99.90
12111;DHT22;6119;52.372;8.990;2024-01-30T08:28:54;6.30;99.90
12111;DHT22;6119;52.372;8.990;2024-01-30T08:31:44;6.40;99.90
12111;DHT22;6119;52.372;8.990;2024-01-30T08:34:31;6.40;99.90
12111;DHT22;6119;52.372;8.990;2024-01-30T08:37:18;6.40;99.90
12111;DHT22;6119;52.372;8.990;2024-01-30T08:40:06;6.40;99.90
12111;DHT22;6119;52.372;8.990;2024-01-30T08:42:54;6.50;99.90
12111;DHT22;6119;52.372;8.990;2024-01-30T08:45:41;6.60;99.90
12111;DHT22;6119;52.372;8.990;2024-01-30T08:48:29;6.60;99.90
12111;DHT22;6119;52.372;8.990;2024-01-30T08:51:16;6.60;99.90
12111;DHT22;6119;52.372;8.990;2024-01-30T08:54:03;6.70;99.90
12111;DHT22;6119;52.372;8.990;2024-01-30T08:56:50;6.80;99.90
12111;DHT22;6119;52.372;8.990;2024-01-30T08:59:37;6.80;99.90
12111;DHT22;6119;52.372;8.990;2024-01-30T09:02:24;6.90;99.90
12111;DHT22;6119;52.372;8.990;2024-01-30T09:05:12;6.90;99.90
12111;DHT22;6119;52.372;8.990;2024-01-30T09:07:59;7.00;99.90
12111;DHT22;6119;52.372;8.990;2024-01-30T09:10:46;7.10;99.90
12111;DHT22;6119;52.372;8.990;2024-01-30T09:13:33;7.20;99.90
12111;DHT22;6119;52.372;8.990;2024-01-30T09:16:20;7.20;99.90
12111;DHT22;6119;52.372;8.990;2024-01-30T09:19:06;7.30;99.90
12111;DHT22;6119;52.372;8.990;2024-01-30T09:21:55;7.40;99.90
12111;DHT22;6119;52.372;8.990;2024-01-30T09:24:41;7.50;99.90
12111;DHT22;6119;52.372;8.990;2024-01-30T09:27:27;7.60;99.90
12111;DHT22;6119;52.372;8.990;2024-01-30T09:30:14;7.60;99.90
12111;DHT22;6119;52.372;8.990;2024-01-30T09:33:01;7.70;99.90
12111;DHT22;6119;52.372;8.990;2024-01-30T09:35:48;7.70;99.90
12111;DHT22;6119;52.372;8.990;2024-01-30T09:38:36;7.80;99.90
12111;DHT22;6119;52.372;8.990;2024-01-30T09:41:24;7.90;99.90
12111;DHT22;6119;52.372;8.990;2024-01-30T09:44:11;8.00;99.90
12111;DHT22;6119;52.372;8.990;2024-01-30T09:46:58;8.10;99.90
12111;DHT22;6119;52.372;8.990;2024-01-30T09:49:49;8.10;99.90
12111;DHT22;6119;52.372;8.990;2024-01-30T09:52:36;8.20;99.90
12111;DHT22;6119;52.372;8.990;2024-01-30T09:55:25;8.30;99.90
12111;DHT22;6119;52.372;8.990;2024-01-30T09:58:12;8.30;99.90
12111;DHT22;6119;52.372;8.990;2024-01-30T10:00:59;8.40;99.90
12111;DHT22;6119;52.372;8.990;2024-01-30T10:03:47;8.50;99.90
12111;DHT22;6119;52.372;8.990;2024-01-30T10:06:34;8.70;99.90
12111;DHT22;6119;52.372;8.990;2024-01-30T10:09:21;8.70;99.90
12111;DHT22;6119;52.372;8.990;2024-01-30T10:12:09;8.70;99.90
12111;DHT22;6119;52.372;8.990;2024-01-30T10:14:56;8.80;99.90
12111;DHT22;6119;52.372;8.990;2024-01-30T10:17:44;8.80;99.90
12111;DHT22;6119;52.372;8.990;2024-01-30T10:20:31;8.90;99.90
12111;DHT22;6119;52.372;8.990;2024-01-30T10:23:18;8.90;99.90
12111;DHT22;6119;52.372;8.990;2024-01-30T10:26:05;9.00;99.90
12111;DHT22;6119;52.372;8.990;2024-01-30T10:28:55;9.10;99.90
12111;DHT22;6119;52.372;8.990;2024-01-30T10:31:42;9.10;99.90
12111;DHT22;6119;52.372;8.990;2024-01-30T10:34:29;9.20;99.90
12111;DHT22;6119;52.372;8.990;2024-01-30T10:37:16;9.20;99.90
12111;DHT22;6119;52.372;8.990;2024-01-30T10:40:05;9.30;99.90
12111;DHT22;6119;52.372;8.990;2024-01-30T10:42:55;9.40;99.90
12111;DHT22;6119;52.372;8.990;2024-01-30T10:45:47;9.40;99.90
12111;DHT22;6119;52.372;8.990;2024-01-30T10:48:37;9.40;99.90
12111;DHT22;6119;52.372;8.990;2024-01-30T10:51:28;9.50;99.90
12111;DHT22;6119;52.372;8.990;2024-01-30T10:54:15;9.60;99.90
12111;DHT22;6119;52.372;8.990;2024-01-30T10:57:04;9.60;99.90
12111;DHT22;6119;52.372;8.990;2024-01-30T10:59:56;9.70;99.90
12111;DHT22;6119;52.372;8.990;2024-01-30T11:02:45;9.80;99.90
12111;DHT22;6119;52.372;8.990;2024-01-30T11:05:33;10.00;99.90
12111;DHT22;6119;52.372;8.990;2024-01-30T11:08:24;10.10;99.90
12111;DHT22;6119;52.372;8.990;2024-01-30T11:11:11;10.10;99.90
12111;DHT22;6119;52.372;8.990;2024-01-30T11:14:02;10.20;99.90
12111;DHT22;6119;52.372;8.990;2024-01-30T11:16:49;10.30;99.90
12111;DHT22;6119;52.372;8.990;2024-01-30T11:19:37;10.30;99.90
12111;DHT22;6119;52.372;8.990;2024-01-30T11:22:24;10.40;99.90
12111;DHT22;6119;52.372;8.990;2024-01-30T11:25:12;10.50;99.90
12111;DHT22;6119;52.372;8.990;2024-01-30T11:27:59;10.50;99.90
12111;DHT22;6119;52.372;8.990;2024-01-30T11:30:46;10.50;99.90
12111;DHT22;6119;52.372;8.990;2024-01-30T11:33:36;10.60;99.90
12111;DHT22;6119;52.372;8.990;2024-01-30T11:36:26;10.70;99.90
12111;DHT22;6119;52.372;8.990;2024-01-30T11:39:13;10.70;99.90
12111;DHT22;6119;52.372;8.990;2024-01-30T11:42:03;10.80;99.90
12111;DHT22;6119;52.372;8.990;2024-01-30T11:44:51;10.90;99.90
12111;DHT22;6119;52.372;8.990;2024-01-30T11:47:38;10.90;99.90
12111;DHT22;6119;52.372;8.990;2024-01-30T11:50:29;11.00;99.90
12111;DHT22;6119;52.372;8.990;2024-01-30T11:53:18;11.10;99.90
12111;DHT22;6119;52.372;8.990;2024-01-30T11:56:06;11.20;99.90
12111;DHT22;6119;52.372;8.990;2024-01-30T11:58:54;11.30;99.90
12111;DHT22;6119;52.372;8.990;2024-01-30T12:01:40;11.30;99.90
12111;DHT22;6119;52.372;8.990;2024-01-30T12:04:28;11.40;99.90
12111;DHT22;6119;52.372;8.990;2024-01-30T12:07:16;11.40;99.90
12111;DHT22;6119;52.372;8.990;2024-01-30T12:10:04;11.50;99.90
12111;DHT22;6119;52.372;8.990;2024-01-30T12:12:54;11.60;99.90
12111;DHT22;6119;52.372;8.990;2024-01-30T12:15:41;11.60;99.90
12111;DHT22;6119;52.372;8.990;2024-01-30T12:18:27;11.70;99.90
12111;DHT22;6119;52.372;8.990;2024-01-30T12:21:16;11.70;99.90
12111;DHT22;6119;52.372;8.990;2024-01-30T12:24:04;11.80;99.90
12111;DHT22;6119;52.372;8.990;2024-01-30T12:26:57;11.80;99.90
12111;DHT22;6119;52.372;8.990;2024-01-30T12:29:43;11.90;99.90
12111;DHT22;6119;52.372;8.990;2024-01-30T12:32:30;11.90;99.90
12111;DHT22;6119;52.372;8.990;2024-01-30T12:35:18;11.90;99.90
12111;DHT22;6119;52.372;8.990;2024-01-30T12:38:05;11.90;99.90
12111;DHT22;6119;52.372;8.990;2024-01-30T12:40:54;12.00;99.90
12111;DHT22;6119;52.372;8.990;2024-01-30T12:43:43;12.00;99.90
12111;DHT22;6119;52.372;8.990;2024-01-30T12:46:30;12.00;99.90
12111;DHT22;6119;52.372;8.990;2024-01-30T12:49:16;12.00;99.90
12111;DHT22;6119;52.372;8.990;2024-01-30T12:52:04;12.10;99.90
12111;DHT22;6119;52.372;8.990;2024-01-30T12:54:51;12.10;99.90
12111;DHT22;6119;52.372;8.990;2024-01-30T12:57:38;12.10;99.90
12111;DHT22;6119;52.372;8.990;2024-01-30T13:00:26;12.10;99.90
12111;DHT22;6119;52.372;8.990;2024-01-30T13:03:13;12.10;99.90
12111;DHT22;6119;52.372;8.990;2024-01-30T13:05:59;12.00;99.90
12111;DHT22;6119;52.372;8.990;2024-01-30T13:08:47;12.00;99.90
12111;DHT22;6119;52.372;8.990;2024-01-30T13:11:33;12.00;99.90
12111;DHT22;6119;52.372;8.990;2024-01-30T13:14:20;12.00;99.90
12111;DHT22;6119;52.372;8.990;2024-01-30T13:17:08;12.00;99.90
12111;DHT22;6119;52.372;8.990;2024-01-30T13:19:55;12.00;99.90
12111;DHT22;6119;52.372;8.990;2024-01-30T13:22:52;12.00;99.90
12111;DHT22;6119;52.372;8.990;2024-01-30T13:25:38;12.00;99.90
12111;DHT22;6119;52.372;8.990;2024-01-30T13:28:25;12.00;99.90
12111;DHT22;6119;52.372;8.990;2024-01-30T13:31:12;12.00;99.90
12111;DHT22;6119;52.372;8.990;2024-01-30T13:34:00;12.00;99.90
12111;DHT22;6119;52.372;8.990;2024-01-30T13:36:49;12.00;99.90
12111;DHT22;6119;52.372;8.990;2024-01-30T13:39:35;11.90;99.90
12111;DHT22;6119;52.372;8.990;2024-01-30T13:42:24;12.00;99.90
12111;DHT22;6119;52.372;8.990;2024-01-30T13:45:10;11.90;99.90
12111;DHT22;6119;52.372;8.990;2024-01-30T13:47:57;11.90;99.90
12111;DHT22;6119;52.372;8.990;2024-01-30T13:50:46;11.90;99.90
12111;DHT22;6119;52.372;8.990;2024-01-30T13:53:33;12.00;99.90
12111;DHT22;6119;52.372;8.990;2024-01-30T13:56:20;12.00;99.90
12111;DHT22;6119;52.372;8.990;2024-01-30T13:59:07;12.00;99.90
12111;DHT22;6119;52.372;8.990;2024-01-30T14:01:54;12.00;99.90
12111;DHT22;6119;52.372;8.990;2024-01-30T14:04:40;12.00;99.90
12111;DHT22;6119;52.372;8.990;2024-01-30T14:07:28;12.00;99.90
12111;DHT22;6119;52.372;8.990;2024-01-30T14:10:16;12.00;99.90
12111;DHT22;6119;52.372;8.990;2024-01-30T14:13:02;12.00;99.90
12111;DHT22;6119;52.372;8.990;2024-01-30T14:15:49;12.10;99.90
12111;DHT22;6119;52.372;8.990;2024-01-30T14:18:36;12.00;99.90
12111;DHT22;6119;52.372;8.990;2024-01-30T14:21:22;12.10;99.90
12111;DHT22;6119;52.372;8.990;2024-01-30T14:24:11;12.00;99.90
12111;DHT22;6119;52.372;8.990;2024-01-30T14:26:58;12.10;99.90
12111;DHT22;6119;52.372;8.990;2024-01-30T14:29:45;12.10;99.90
12111;DHT22;6119;52.372;8.990;2024-01-30T14:32:31;12.10;99.90
12111;DHT22;6119;52.372;8.990;2024-01-30T14:35:18;12.10;99.90
12111;DHT22;6119;52.372;8.990;2024-01-30T14:38:05;12.10;99.90
12111;DHT22;6119;52.372;8.990;2024-01-30T14:40:54;12.00;99.90
12111;DHT22;6119;52.372;8.990;2024-01-30T14:43:41;12.10;99.90
12111;DHT22;6119;52.372;8.990;2024-01-30T14:46:28;12.10;99.90
12111;DHT22;6119;52.372;8.990;2024-01-30T14:49:15;12.10;99.90
12111;DHT22;6119;52.372;8.990;2024-01-30T14:52:02;12.10;99.90
12111;DHT22;6119;52.372;8.990;2024-01-30T14:54:50;12.10;99.90
12111;DHT22;6119;52.372;8.990;2024-01-30T14:57:39;12.10;99.90
12111;DHT22;6119;52.372;8.990;2024-01-30T15:00:28;12.00;99.90
12111;DHT22;6119;52.372;8.990;2024-01-30T15:03:15;12.00;99.90
12111;DHT22;6119;52.372;8.990;2024-01-30T15:06:02;12.10;99.90
12111;DHT22;6119;52.372;8.990;2024-01-30T15:08:50;12.10;99.90
12111;DHT22;6119;52.372;8.990;2024-01-30T15:11:37;12.10;99.90
12111;DHT22;6119;52.372;8.990;2024-01-30T15:14:25;12.10;99.90
12111;DHT22;6119;52.372;8.990;2024-01-30T15:17:12;12.10;99.90
12111;DHT22;6119;52.372;8.990;2024-01-30T15:19:59;12.10;99.90
12111;DHT22;6119;52.372;8.990;2024-01-30T15:22:46;12.10;99.90
12111;DHT22;6119;52.372;8.990;2024-01-30T15:25:33;12.10;99.90
12111;DHT22;6119;52.372;8.990;2024-01-30T15:28:33;12.10;99.90
12111;DHT22;6119;52.372;8.990;2024-01-30T15:31:21;12.10;99.90
12111;DHT22;6119;52.372;8.990;2024-01-30T15:34:08;12.10;99.90
12111;DHT22;6119;52.372;8.990;2024-01-30T15:36:54;12.10;99.90
12111;DHT22;6119;52.372;8.990;2024-01-30T15:39:41;12.20;99.90
12111;DHT22;6119;52.372;8.990;2024-01-30T15:42:28;12.10;99.90
12111;DHT22;6119;52.372;8.990;2024-01-30T15:45:15;12.10;99.90
12111;DHT22;6119;52.372;8.990;2024-01-30T15:48:03;12.10;99.90
12111;DHT22;6119;52.372;8.990;2024-01-30T15:50:50;12.10;99.90
12111;DHT22;6119;52.372;8.990;2024-01-30T15:53:37;12.10;99.90
12111;DHT22;6119;52.372;8.990;2024-01-30T15:56:23;12.10;99.90
12111;DHT22;6119;52.372;8.990;2024-01-30T15:59:10;12.10;99.90
12111;DHT22;6119;52.372;8.990;2024-01-30T16:01:59;12.10;99.90
12111;DHT22;6119;52.372;8.990;2024-01-30T16:04:47;12.10;99.90
12111;DHT22;6119;52.372;8.990;2024-01-30T16:07:35;12.00;99.90
12111;DHT22;6119;52.372;8.990;2024-01-30T16:10:21;12.00;99.90
12111;DHT22;6119;52.372;8.990;2024-01-30T16:13:08;12.00;99.90
12111;DHT22;6119;52.372;8.990;2024-01-30T16:15:55;12.00;99.90
12111;DHT22;6119;52.372;8.990;2024-01-30T16:18:41;12.00;99.90
12111;DHT22;6119;52.372;8.990;2024-01-30T16:21:29;12.00;99.90
12111;DHT22;6119;52.372;8.990;2024-01-30T16:24:16;11.90;99.90
12111;DHT22;6119;52.372;8.990;2024-01-30T16:27:04;11.90;99.90
12111;DHT22;6119;52.372;8.990;2024-01-30T16:29:51;11.90;99.90
12111;DHT22;6119;52.372;8.990;2024-01-30T16:32:37;11.90;99.90
12111;DHT22;6119;52.372;8.990;2024-01-30T16:35:25;11.80;99.90
12111;DHT22;6119;52.372;8.990;2024-01-30T16:38:32;11.80;99.90
12111;DHT22;6119;52.372;8.990;2024-01-30T16:41:18;11.80;99.90
12111;DHT22;6119;52.372;8.990;2024-01-30T16:44:05;11.70;99.90
12111;DHT22;6119;52.372;8.990;2024-01-30T16:46:52;11.70;99.90
12111;DHT22;6119;52.372;8.990;2024-01-30T16:49:38;11.70;99.90
12111;DHT22;6119;52.372;8.990;2024-01-30T16:52:26;11.70;99.90
12111;DHT22;6119;52.372;8.990;2024-01-30T16:55:14;11.60;99.90
12111;DHT22;6119;52.372;8.990;2024-01-30T16:58:01;11.70;99.90
12111;DHT22;6119;52.372;8.990;2024-01-30T17:00:48;11.70;99.90
12111;DHT22;6119;52.372;8.990;2024-01-30T17:03:37;11.70;99.90
12111;DHT22;6119;52.372;8.990;2024-01-30T17:06:33;11.70;99.90
12111;DHT22;6119;52.372;8.990;2024-01-30T17:09:20;11.70;99.90
12111;DHT22;6119;52.372;8.990;2024-01-30T17:12:09;11.70;99.90
12111;DHT22;6119;52.372;8.990;2024-01-30T17:14:59;11.60;99.90
12111;DHT22;6119;52.372;8.990;2024-01-30T17:17:45;11.60;99.90
12111;DHT22;6119;52.372;8.990;2024-01-30T17:20:32;11.60;99.90
12111;DHT22;6119;52.372;8.990;2024-01-30T17:23:19;11.60;99.90
12111;DHT22;6119;52.372;8.990;2024-01-30T17:26:07;11.60;99.90
12111;DHT22;6119;52.372;8.990;2024-01-30T17:28:55;11.60;99.90
12111;DHT22;6119;52.372;8.990;2024-01-30T17:31:42;11.60;99.90
12111;DHT22;6119;52.372;8.990;2024-01-30T17:34:30;11.60;99.90
12111;DHT22;6119;52.372;8.990;2024-01-30T17:37:17;11.60;99.90
12111;DHT22;6119;52.372;8.990;2024-01-30T17:40:05;11.50;99.90
12111;DHT22;6119;52.372;8.990;2024-01-30T17:42:52;11.50;99.90
12111;DHT22;6119;52.372;8.990;2024-01-30T17:45:40;11.40;99.90
12111;DHT22;6119;52.372;8.990;2024-01-30T17:48:26;11.40;99.90
12111;DHT22;6119;52.372;8.990;2024-01-30T17:51:13;11.40;99.90
12111;DHT22;6119;52.372;8.990;2024-01-30T17:54:00;11.30;99.90
12111;DHT22;6119;52.372;8.990;2024-01-30T17:56:46;11.20;99.90
12111;DHT22;6119;52.372;8.990;2024-01-30T17:59:33;11.20;99.90
12111;DHT22;6119;52.372;8.990;2024-01-30T18:02:21;11.00;99.90
12111;DHT22;6119;52.372;8.990;2024-01-30T18:05:10;10.90;99.90